createdAt,value
2018-08-30T00:01:02.348Z,99509.89
2018-08-30T00:03:31.730Z,99503.65
2018-08-30T00:06:00.718Z,99504.32
2018-08-30T00:08:29.772Z,99506.97
2018-08-30T00:10:58.907Z,99497.33
2018-08-30T00:13:28.037Z,99504.73
2018-08-30T00:15:57.236Z,99501.52
2018-08-30T00:18:26.091Z,99502.97
2018-08-30T00:20:54.887Z,99506.94
2018-08-30T00:23:23.952Z,99504.07
2018-08-30T00:25:52.984Z,99512.94
2018-08-30T00:28:21.936Z,99506.08
2018-08-30T00:30:51.056Z,99514.16
2018-08-30T00:33:20.271Z,99514.78
2018-08-30T00:35:49.298Z,99516.30
2018-08-30T00:38:18.179Z,99516.44
2018-08-30T00:40:47.660Z,99511.39
2018-08-30T00:43:16.724Z,99518.28
2018-08-30T00:45:45.753Z,99514.42
2018-08-30T00:48:15.087Z,99516.72
2018-08-30T00:50:44.081Z,99509.63
2018-08-30T00:53:13.014Z,99506.92
2018-08-30T00:55:42.058Z,99513.43
2018-08-30T00:58:11.065Z,99516.94
2018-08-30T01:00:42.755Z,99515.58
2018-08-30T01:03:11.688Z,99511.12
2018-08-30T01:05:40.843Z,99510.77
2018-08-30T01:08:09.961Z,99507.18
2018-08-30T01:10:38.918Z,99503.75
2018-08-30T01:13:07.880Z,99501.06
2018-08-30T01:15:36.812Z,99498.55
2018-08-30T01:18:05.817Z,99497.08
2018-08-30T01:20:34.917Z,99495.86
2018-08-30T01:23:04.096Z,99498.03
2018-08-30T01:25:33.187Z,99501.12
2018-08-30T01:28:02.137Z,99503.48
2018-08-30T01:30:31.453Z,99503.66
2018-08-30T01:33:00.332Z,99499.73
2018-08-30T01:35:29.240Z,99503.48
2018-08-30T01:37:58.437Z,99494.55
2018-08-30T01:40:27.463Z,99488.20
2018-08-30T01:42:56.626Z,99488.41
2018-08-30T01:45:26.068Z,99491.10
2018-08-30T01:47:55.022Z,99493.57
2018-08-30T01:50:24.079Z,99495.92
2018-08-30T01:52:53.455Z,99499.73
2018-08-30T01:55:22.428Z,99508.04
2018-08-30T01:57:51.328Z,99506.75
2018-08-30T02:00:20.391Z,99510.83
2018-08-30T02:02:49.496Z,99508.69
2018-08-30T02:05:18.660Z,99512.38
2018-08-30T02:07:47.612Z,99515.67
2018-08-30T02:10:17.660Z,99509.92
2018-08-30T02:12:46.648Z,99508.30
2018-08-30T02:15:15.634Z,99507.62
2018-08-30T02:17:44.719Z,99504.31
2018-08-30T02:20:13.662Z,99499.94
2018-08-30T02:22:42.966Z,99504.97
2018-08-30T02:25:11.989Z,99497.30
2018-08-30T02:27:41.047Z,99495.02
2018-08-30T02:30:11.266Z,99498.09
2018-08-30T02:32:40.205Z,99508.88
2018-08-30T02:35:09.046Z,99516.36
2018-08-30T02:37:37.956Z,99510.69
2018-08-30T02:40:06.859Z,99508.51
2018-08-30T02:42:35.773Z,99518.91
2018-08-30T02:45:04.794Z,99515.33
2018-08-30T02:47:33.819Z,99511.23
2018-08-30T02:50:02.929Z,99508.05
2018-08-30T02:52:32.307Z,99512.22
2018-08-30T02:55:01.104Z,99515.05
2018-08-30T02:57:30.173Z,99507.50
2018-08-30T02:59:59.160Z,99511.91
2018-08-30T03:02:28.085Z,99506.84
2018-08-30T03:04:57.024Z,99502.35
2018-08-30T03:07:26.461Z,99504.99
2018-08-30T03:09:55.373Z,99511.55
2018-08-30T03:12:24.221Z,99512.79
2018-08-30T03:15:04.123Z,99519.23
2018-08-30T03:17:33.190Z,99512.20
2018-08-30T03:20:02.109Z,99515.65
2018-08-30T03:22:31.186Z,99514.30
2018-08-30T03:25:00.296Z,99518.28
2018-08-30T03:27:29.540Z,99502.00
2018-08-30T03:29:58.928Z,99505.68
2018-08-30T03:32:27.922Z,99515.63
2018-08-30T03:34:57.360Z,99513.00
2018-08-30T03:37:26.612Z,99509.92
2018-08-30T03:39:55.541Z,99517.12
2018-08-30T03:42:24.465Z,99511.91
2018-08-30T03:44:54.715Z,99509.08
2018-08-30T03:47:23.712Z,99514.64
2018-08-30T03:49:52.721Z,99516.83
2018-08-30T03:52:21.884Z,99520.50
2018-08-30T03:54:50.904Z,99511.61
2018-08-30T03:57:19.808Z,99518.66
2018-08-30T03:59:49.489Z,99521.84
2018-08-30T04:02:18.580Z,99523.98
2018-08-30T04:04:47.517Z,99533.20
2018-08-30T04:07:16.921Z,99533.45
2018-08-30T04:09:45.931Z,99533.79
2018-08-30T04:12:14.979Z,99542.17
2018-08-30T04:14:44.022Z,99537.84
2018-08-30T04:17:13.014Z,99543.30
2018-08-30T04:19:42.004Z,99537.02
2018-08-30T04:22:11.312Z,99537.20
2018-08-30T04:24:40.257Z,99546.06
2018-08-30T04:27:09.292Z,99533.06
2018-08-30T04:29:38.792Z,99539.20
2018-08-30T04:32:07.729Z,99536.16
2018-08-30T04:34:36.704Z,99535.06
2018-08-30T04:37:06.074Z,99539.89
2018-08-30T04:39:35.040Z,99540.11
2018-08-30T04:42:03.953Z,99540.21
2018-08-30T04:44:33.345Z,99546.38
2018-08-30T04:47:02.733Z,99547.02
2018-08-30T04:49:31.826Z,99545.42
2018-08-30T04:52:00.961Z,99552.77
2018-08-30T04:54:29.904Z,99551.16
2018-08-30T04:56:58.856Z,99552.60
2018-08-30T04:59:28.107Z,99550.99
2018-08-30T05:01:57.064Z,99554.80
2018-08-30T05:04:26.227Z,99548.82
2018-08-30T05:06:55.576Z,99550.50
2018-08-30T05:09:24.558Z,99554.31
2018-08-30T05:11:53.464Z,99556.75
2018-08-30T05:14:22.483Z,99555.80
2018-08-30T05:16:51.471Z,99552.94
2018-08-30T05:19:20.376Z,99561.41
2018-08-30T05:21:49.741Z,99555.58
2018-08-30T05:24:18.612Z,99559.29
2018-08-30T05:26:47.426Z,99553.60
2018-08-30T05:29:16.806Z,99553.60
2018-08-30T05:31:45.776Z,99554.78
2018-08-30T05:34:14.834Z,99555.97
2018-08-30T05:36:43.806Z,99549.39
2018-08-30T05:39:12.694Z,99555.25
2018-08-30T05:41:41.690Z,99551.24
2018-08-30T05:44:11.186Z,99550.73
2018-08-30T05:46:40.201Z,99546.86
2018-08-30T05:49:09.217Z,99544.13
2018-08-30T05:51:38.858Z,99536.38
2018-08-30T05:54:07.988Z,99541.14
2018-08-30T05:56:36.943Z,99543.83
2018-08-30T05:59:06.335Z,99541.59
2018-08-30T06:01:35.286Z,99543.14
2018-08-30T06:04:04.265Z,99537.78
2018-08-30T06:06:33.481Z,99543.87
2018-08-30T06:09:02.491Z,99549.09
2018-08-30T06:11:31.345Z,99543.38
2018-08-30T06:14:00.696Z,99538.19
2018-08-30T06:16:29.601Z,99543.06
2018-08-30T06:18:58.501Z,99544.09
2018-08-30T06:21:27.745Z,99544.63
2018-08-30T06:23:56.711Z,99546.31
2018-08-30T06:26:25.829Z,99546.34
2018-08-30T06:28:56.009Z,99550.87
2018-08-30T06:31:24.980Z,99557.61
2018-08-30T06:33:53.936Z,99557.60
2018-08-30T06:36:23.545Z,99549.01
2018-08-30T06:38:52.454Z,99549.69
2018-08-30T06:41:21.419Z,99556.91
2018-08-30T06:43:50.808Z,99559.27
2018-08-30T06:46:20.875Z,99562.12
2018-08-30T06:48:49.945Z,99560.91
2018-08-30T06:51:19.298Z,99561.22
2018-08-30T06:53:48.295Z,99563.05
2018-08-30T06:56:17.325Z,99563.20
2018-08-30T06:58:46.260Z,99564.56
2018-08-30T07:01:15.182Z,99563.36
2018-08-30T07:03:44.213Z,99565.53
2018-08-30T07:06:13.631Z,99565.83
2018-08-30T07:08:42.573Z,99567.50
2018-08-30T07:11:11.452Z,99568.23
2018-08-30T07:13:40.508Z,99576.32
2018-08-30T07:16:09.801Z,99580.52
2018-08-30T07:18:38.831Z,99578.56
2018-08-30T07:21:07.957Z,99580.70
2018-08-30T07:23:36.915Z,99585.05
2018-08-30T07:26:05.871Z,99578.23
2018-08-30T07:28:35.432Z,99581.77
2018-08-30T07:31:04.150Z,99582.48
2018-08-30T07:33:33.133Z,99575.78
2018-08-30T07:36:02.597Z,99583.16
2018-08-30T07:38:31.586Z,99583.09
2018-08-30T07:41:00.633Z,99575.87
2018-08-30T07:43:29.896Z,99580.48
2018-08-30T07:45:58.953Z,99577.41
2018-08-30T07:48:27.825Z,99576.86
2018-08-30T07:50:57.181Z,99575.30
2018-08-30T07:53:26.231Z,99570.55
2018-08-30T07:55:55.281Z,99575.20
2018-08-30T07:58:25.228Z,99579.21
2018-08-30T08:00:54.221Z,99576.86
2018-08-30T08:03:23.235Z,99573.77
2018-08-30T08:05:52.272Z,99570.62
2018-08-30T08:08:21.237Z,99573.28
2018-08-30T08:10:50.040Z,99569.04
2018-08-30T08:13:19.208Z,99571.90
2018-08-30T08:15:48.132Z,99573.97
2018-08-30T08:18:16.971Z,99576.43
2018-08-30T08:20:46.479Z,99572.05
2018-08-30T08:23:15.434Z,99565.39
2018-08-30T08:25:44.500Z,99573.33
2018-08-30T08:28:13.486Z,99567.72
2018-08-30T08:30:42.388Z,99560.25
2018-08-30T08:33:11.211Z,99562.12
2018-08-30T08:35:40.836Z,99562.52
2018-08-30T08:38:09.712Z,99558.87
2018-08-30T08:40:38.633Z,99554.65
2018-08-30T08:43:07.701Z,99553.13
2018-08-30T08:45:36.642Z,99545.41
2018-08-30T08:48:05.632Z,99542.66
2018-08-30T08:50:34.606Z,99544.41
2018-08-30T08:53:03.552Z,99544.47
2018-08-30T08:55:32.613Z,99543.20
2018-08-30T08:58:01.729Z,99545.03
2018-08-30T09:00:30.633Z,99545.87
2018-08-30T09:02:59.822Z,99542.23
2018-08-30T09:05:29.141Z,99537.71
2018-08-30T09:07:57.991Z,99539.94
2018-08-30T09:10:27.017Z,99539.55
2018-08-30T09:12:56.029Z,99535.70
2018-08-30T09:15:24.795Z,99538.02
2018-08-30T09:17:53.725Z,99535.84
2018-08-30T09:20:23.272Z,99529.45
2018-08-30T09:22:52.282Z,99528.01
2018-08-30T09:25:21.207Z,99526.94
2018-08-30T09:27:50.544Z,99528.48
2018-08-30T09:30:19.513Z,99524.20
2018-08-30T09:32:48.561Z,99532.16
2018-08-30T09:35:17.549Z,99528.73
2018-08-30T09:37:46.598Z,99514.46
2018-08-30T09:40:15.651Z,99516.36
2018-08-30T09:42:44.890Z,99518.99
2018-08-30T09:45:13.834Z,99515.74
2018-08-30T09:47:42.732Z,99518.86
2018-08-30T09:50:11.746Z,99514.20
2018-08-30T09:52:40.829Z,99516.78
2018-08-30T09:55:09.763Z,99514.28
2018-08-30T09:57:39.150Z,99504.01
2018-08-30T10:00:12.660Z,99503.77
2018-08-30T10:02:46.792Z,99505.13
2018-08-30T10:05:15.929Z,99500.20
2018-08-30T10:07:44.842Z,99497.06
2018-08-30T10:10:13.875Z,99504.50
2018-08-30T10:12:42.762Z,99495.80
2018-08-30T10:15:11.403Z,99496.50
2018-08-30T10:17:40.416Z,99498.89
2018-08-30T10:20:09.355Z,99494.50
2018-08-30T10:22:38.488Z,99495.73
2018-08-30T10:25:08.092Z,99488.77
2018-08-30T10:27:37.061Z,99492.02
2018-08-30T10:30:06.081Z,99478.29
2018-08-30T10:32:35.405Z,99476.47
2018-08-30T10:35:04.373Z,99474.53
2018-08-30T10:37:33.388Z,99471.17
2018-08-30T10:40:02.240Z,99468.89
2018-08-30T10:42:31.160Z,99473.53
2018-08-30T10:44:59.969Z,99469.02
2018-08-30T10:47:29.280Z,99464.17
2018-08-30T10:49:58.308Z,99459.95
2018-08-30T10:52:27.330Z,99459.42
2018-08-30T10:54:56.430Z,99458.64
2018-08-30T10:57:25.363Z,99465.39
2018-08-30T10:59:54.366Z,99466.31
2018-08-30T11:02:25.269Z,99453.48
2018-08-30T11:04:54.437Z,99460.37
2018-08-30T11:07:23.585Z,99454.11
2018-08-30T11:09:53.183Z,99455.68
2018-08-30T11:12:22.163Z,99458.31
2018-08-30T11:14:51.222Z,99455.98
2018-08-30T11:17:21.069Z,99446.78
2018-08-30T11:19:49.822Z,99443.07
2018-08-30T11:22:18.952Z,99442.31
2018-08-30T11:24:48.355Z,99448.03
2018-08-30T11:27:17.268Z,99438.59
2018-08-30T11:29:46.080Z,99437.77
2018-08-30T11:32:15.240Z,99433.47
2018-08-30T11:34:44.214Z,99432.19
2018-08-30T11:37:13.404Z,99430.02
2018-08-30T11:39:42.373Z,99430.81
2018-08-30T11:42:11.413Z,99423.91
2018-08-30T11:44:40.306Z,99427.29
2018-08-30T11:47:09.276Z,99420.64
2018-08-30T11:49:38.343Z,99422.68
2018-08-30T11:52:07.591Z,99415.80
2018-08-30T11:54:36.475Z,99412.45
2018-08-30T11:57:05.395Z,99410.98
2018-08-30T11:59:34.398Z,99412.66
2018-08-30T12:02:03.866Z,99413.44
2018-08-30T12:04:32.884Z,99404.27
2018-08-30T12:07:02.135Z,99400.31
2018-08-30T12:09:31.119Z,99404.03
2018-08-30T12:12:02.165Z,99400.91
2018-08-30T12:14:32.147Z,99398.94
2018-08-30T12:17:01.313Z,99393.77
2018-08-30T12:19:30.274Z,99391.92
2018-08-30T12:21:59.770Z,99384.48
2018-08-30T12:24:28.684Z,99375.50
2018-08-30T12:26:57.806Z,99373.53
2018-08-30T12:29:27.298Z,99370.02
2018-08-30T12:31:56.531Z,99366.16
2018-08-30T12:34:25.523Z,99367.77
2018-08-30T12:36:54.907Z,99363.42
2018-08-30T12:39:23.922Z,99361.83
2018-08-30T12:41:53.049Z,99368.66
2018-08-30T12:44:22.381Z,99361.45
2018-08-30T12:46:51.429Z,99357.72
2018-08-30T12:49:20.399Z,99362.76
2018-08-30T12:51:50.551Z,99358.25
2018-08-30T12:54:19.400Z,99360.45
2018-08-30T12:56:48.459Z,99355.16
2018-08-30T12:59:18.901Z,99358.15
2018-08-30T13:01:47.888Z,99365.92
2018-08-30T13:04:16.888Z,99362.69
2018-08-30T13:06:50.573Z,99365.02
2018-08-30T13:09:19.664Z,99359.91
2018-08-30T13:11:48.730Z,99357.34
2018-08-30T13:14:18.165Z,99360.27
2018-08-30T13:16:46.940Z,99363.65
2018-08-30T13:19:15.893Z,99363.64
2018-08-30T13:21:45.599Z,99361.19
2018-08-30T13:24:14.598Z,99355.38
2018-08-30T13:26:43.665Z,99354.56
2018-08-30T13:29:13.058Z,99356.62
2018-08-30T13:31:42.678Z,99352.49
2018-08-30T13:34:11.788Z,99353.74
2018-08-30T13:36:41.525Z,99350.84
2018-08-30T13:39:11.307Z,99348.30
2018-08-30T13:41:40.719Z,99348.01
2018-08-30T13:44:11.247Z,99359.55
2018-08-30T13:46:41.356Z,99354.69
2018-08-30T13:49:11.028Z,99355.28
2018-08-30T13:51:40.555Z,99357.05
2018-08-30T13:54:09.431Z,99357.70
2018-08-30T13:56:38.109Z,99358.95
2018-08-30T13:59:07.693Z,99357.11
2018-08-30T14:01:36.308Z,99353.77
2018-08-30T14:04:05.424Z,99356.33
2018-08-30T14:06:34.320Z,99351.45
2018-08-30T14:09:03.599Z,99349.02
2018-08-30T14:11:32.436Z,99351.64
2018-08-30T14:14:01.855Z,99348.44
2018-08-30T14:16:30.435Z,99347.83
2018-08-30T14:18:59.317Z,99350.10
2018-08-30T14:21:28.371Z,99352.71
2018-08-30T14:23:57.497Z,99349.84
2018-08-30T14:26:26.268Z,99349.21
2018-08-30T14:28:55.223Z,99354.55
2018-08-30T14:31:24.250Z,99346.17
2018-08-30T14:33:53.186Z,99353.61
2018-08-30T14:36:22.306Z,99353.48
2018-08-30T14:38:52.080Z,99351.81
2018-08-30T14:41:21.224Z,99354.98
2018-08-30T14:43:50.301Z,99354.98
2018-08-30T14:46:19.172Z,99354.22
2018-08-30T14:48:48.143Z,99350.71
2018-08-30T14:51:17.803Z,99351.05
2018-08-30T14:53:52.110Z,99349.44
2018-08-30T14:56:15.635Z,99351.21
2018-08-30T14:58:44.789Z,99362.22
2018-08-30T15:01:13.734Z,99356.35
2018-08-30T15:03:42.660Z,99359.86
2018-08-30T15:06:11.936Z,99354.38
2018-08-30T15:08:41.101Z,99360.35
2018-08-30T15:11:10.289Z,99358.31
2018-08-30T15:13:39.633Z,99348.75
2018-08-30T15:16:08.978Z,99346.30
2018-08-30T15:18:38.044Z,99348.97
2018-08-30T15:21:06.968Z,99355.96
2018-08-30T15:23:36.175Z,99349.20
2018-08-30T15:26:05.248Z,99345.63
2018-08-30T15:28:34.271Z,99347.73
2018-08-30T15:31:03.341Z,99346.00
2018-08-30T15:33:32.219Z,99343.32
2018-08-30T15:36:01.453Z,99347.05
2018-08-30T15:38:30.466Z,99351.14
2018-08-30T15:40:59.423Z,99342.88
2018-08-30T15:43:28.768Z,99346.91
2018-08-30T15:45:57.612Z,99344.63
2018-08-30T15:48:26.587Z,99347.80
2018-08-30T15:50:55.471Z,99344.52
2018-08-30T15:53:24.578Z,99340.11
2018-08-30T15:55:53.836Z,99339.52
2018-08-30T15:58:22.827Z,99344.31
2018-08-30T16:00:51.829Z,99344.47
2018-08-30T16:03:20.828Z,99341.81
2018-08-30T16:05:50.383Z,99343.15
2018-08-30T16:08:19.224Z,99343.22
2018-08-30T16:10:48.227Z,99345.70
2018-08-30T16:13:17.664Z,99345.05
2018-08-30T16:15:46.582Z,99350.44
2018-08-30T16:18:15.662Z,99345.20
2018-08-30T16:20:45.624Z,99349.88
2018-08-30T16:23:23.180Z,99342.66
2018-08-30T16:25:52.589Z,99344.20
2018-08-30T16:28:22.090Z,99344.44
2018-08-30T16:30:50.999Z,99350.48
2018-08-30T16:33:20.477Z,99350.59
2018-08-30T16:35:49.483Z,99347.81
2018-08-30T16:38:18.530Z,99347.42
2018-08-30T16:40:47.884Z,99351.73
2018-08-30T16:43:16.777Z,99353.66
2018-08-30T16:45:45.979Z,99353.67
2018-08-30T16:48:15.615Z,99355.45
2018-08-30T16:50:44.430Z,99365.22
2018-08-30T16:53:13.562Z,99365.36
2018-08-30T16:55:42.949Z,99365.16
2018-08-30T16:58:11.795Z,99370.20
2018-08-30T17:00:40.745Z,99371.47
2018-08-30T17:03:10.359Z,99371.69
2018-08-30T17:05:39.315Z,99376.33
2018-08-30T17:08:08.442Z,99378.95
2018-08-30T17:10:38.046Z,99388.90
2018-08-30T17:13:06.887Z,99387.61
2018-08-30T17:15:35.832Z,99386.23
2018-08-30T17:18:05.393Z,99390.75
2018-08-30T17:21:48.799Z,99391.78
2018-08-30T17:24:18.063Z,99399.21
2018-08-30T17:26:47.002Z,99401.36
2018-08-30T17:29:16.890Z,99395.84
2018-08-30T17:31:46.288Z,99395.61
2018-08-30T17:34:15.351Z,99401.31
2018-08-30T17:36:44.475Z,99401.59
2018-08-30T17:39:13.837Z,99402.73
2018-08-30T17:41:42.791Z,99405.30
2018-08-30T17:44:11.878Z,99409.49
2018-08-30T17:46:40.941Z,99408.08
2018-08-30T17:49:10.395Z,99411.95
2018-08-30T17:51:39.740Z,99420.63
2018-08-30T17:54:08.842Z,99412.42
2018-08-30T17:56:37.797Z,99424.20
2018-08-30T17:59:07.395Z,99423.48
2018-08-30T18:01:36.512Z,99427.70
2018-08-30T18:04:05.329Z,99438.45
2018-08-30T18:06:34.380Z,99439.83
2018-08-30T18:09:04.227Z,99445.80
2018-08-30T18:11:33.113Z,99445.58
2018-08-30T18:14:02.068Z,99452.17
2018-08-30T18:16:31.191Z,99451.98
2018-08-30T18:19:00.316Z,99455.41
2018-08-30T18:21:29.377Z,99456.33
2018-08-30T18:23:58.596Z,99462.52
2018-08-30T18:26:28.246Z,99462.64
2018-08-30T18:28:57.197Z,99462.33
2018-08-30T18:31:26.254Z,99465.56
2018-08-30T18:33:55.136Z,99468.20
2018-08-30T18:36:24.022Z,99475.89
2018-08-30T18:38:53.021Z,99475.99
2018-08-30T18:41:22.201Z,99486.88
2018-08-30T18:43:51.180Z,99490.46
2018-08-30T18:46:20.314Z,99494.05
2018-08-30T18:48:49.332Z,99488.23
2018-08-30T18:51:18.436Z,99489.81
2018-08-30T18:53:47.553Z,99489.10
2018-08-30T18:56:17.151Z,99494.44
2018-08-30T18:58:46.022Z,99490.95
2018-08-30T19:01:14.912Z,99492.14
2018-08-30T19:03:44.206Z,99502.41
2018-08-30T19:06:13.133Z,99503.09
2018-08-30T19:08:42.169Z,99506.94
2018-08-30T19:11:11.099Z,99504.87
2018-08-30T19:13:40.031Z,99503.53
2018-08-30T19:16:14.610Z,99501.84
2018-08-30T19:19:46.978Z,99507.77
2018-08-30T19:22:16.349Z,99508.96
2018-08-30T19:24:50.550Z,99511.00
2018-08-30T19:27:19.982Z,99507.28
2018-08-30T19:29:54.148Z,99511.77
2018-08-30T19:32:23.445Z,99520.24
2018-08-30T19:34:53.492Z,99515.34
2018-08-30T19:37:22.516Z,99522.30
2018-08-30T19:39:51.803Z,99523.33
2018-08-30T19:42:20.805Z,99525.15
2018-08-30T19:44:49.803Z,99523.44
2018-08-30T19:47:18.720Z,99526.58
2018-08-30T19:49:47.663Z,99525.11
2018-08-30T19:52:16.691Z,99526.52
2018-08-30T19:54:45.944Z,99525.20
2018-08-30T19:57:14.919Z,99529.36
2018-08-30T19:59:43.889Z,99531.73
2018-08-30T20:02:12.893Z,99529.08
2018-08-30T20:04:42.028Z,99535.73
2018-08-30T20:07:10.920Z,99537.41
2018-08-30T20:09:40.305Z,99538.77
2018-08-30T20:12:09.240Z,99537.78
2018-08-30T20:14:38.383Z,99534.41
2018-08-30T20:17:07.843Z,99529.03
2018-08-30T20:19:38.683Z,99530.39
2018-08-30T20:22:11.799Z,99538.69
2018-08-30T20:24:40.504Z,99533.48
2018-08-30T20:27:10.050Z,99539.77
2018-08-30T20:29:39.182Z,99535.23
2018-08-30T20:32:08.240Z,99538.25
2018-08-30T20:34:37.161Z,99542.64
2018-08-30T20:37:06.490Z,99547.56
2018-08-30T20:39:35.321Z,99551.83
2018-08-30T20:42:04.313Z,99548.30
2018-08-30T20:44:33.319Z,99548.47
2018-08-30T20:47:02.260Z,99551.87
2018-08-30T20:49:31.363Z,99558.80
2018-08-30T20:52:00.528Z,99555.23
2018-08-30T20:54:29.543Z,99555.05
2018-08-30T20:56:58.510Z,99554.74
2018-08-30T20:59:28.091Z,99551.22
2018-08-30T21:01:57.026Z,99555.59
2018-08-30T21:04:25.884Z,99552.73
2018-08-30T21:06:55.161Z,99550.53
2018-08-30T21:09:24.149Z,99555.62
2018-08-30T21:11:53.140Z,99556.77
2018-08-30T21:14:22.647Z,99556.63
2018-08-30T21:16:51.476Z,99561.84
2018-08-30T21:19:20.520Z,99561.68
2018-08-30T21:21:49.871Z,99571.32
2018-08-30T21:24:18.841Z,99566.73
2018-08-30T21:26:47.756Z,99568.27
2018-08-30T21:29:16.817Z,99571.13
2018-08-30T21:31:45.805Z,99573.50
2018-08-30T21:34:14.852Z,99571.32
2018-08-30T21:36:44.256Z,99571.30
2018-08-30T21:39:13.286Z,99570.48
2018-08-30T21:41:42.272Z,99567.42
2018-08-30T21:44:11.211Z,99572.33
2018-08-30T21:46:40.420Z,99581.09
2018-08-30T21:49:13.485Z,99580.91
2018-08-30T21:51:42.785Z,99577.19
2018-08-30T21:54:11.916Z,99580.07
2018-08-30T21:56:40.905Z,99578.70
2018-08-30T21:59:16.795Z,99585.42
2018-08-30T22:01:55.304Z,99587.62
2018-08-30T22:04:27.490Z,99591.30
2018-08-30T22:06:56.656Z,99589.63
2018-08-30T22:09:27.898Z,99597.37
2018-08-30T22:11:57.896Z,99602.91
2018-08-30T22:14:27.002Z,99610.00
2018-08-30T22:16:56.006Z,99605.78
2018-08-30T22:19:24.882Z,99608.62
2018-08-30T22:21:53.629Z,99610.67
2018-08-30T22:24:22.670Z,99614.22
2018-08-30T22:26:52.143Z,99617.59
2018-08-30T22:29:28.767Z,99615.36
2018-08-30T22:31:58.111Z,99609.80
2018-08-30T22:34:33.314Z,99611.82
2018-08-30T22:37:07.852Z,99607.77
2018-08-30T22:39:36.917Z,99612.83
2018-08-30T22:42:06.101Z,99614.69
2018-08-30T22:44:36.140Z,99615.33
2018-08-30T22:47:05.213Z,99615.83
2018-08-30T22:49:34.288Z,99611.07
2018-08-30T22:52:09.356Z,99602.98
2018-08-30T22:54:38.321Z,99604.66
2018-08-30T22:57:07.337Z,99603.81
2018-08-30T22:59:36.969Z,99602.26
2018-08-30T23:02:07.048Z,99612.29
2018-08-30T23:04:36.244Z,99610.25
2018-08-30T23:07:05.686Z,99616.44
2018-08-30T23:09:34.766Z,99611.39
2018-08-30T23:12:03.822Z,99610.87
2018-08-30T23:14:33.439Z,99608.30
2018-08-30T23:17:02.775Z,99608.96
2018-08-30T23:19:31.777Z,99606.21
2018-08-30T23:22:01.040Z,99607.34
2018-08-30T23:24:29.939Z,99612.59
2018-08-30T23:26:58.891Z,99610.92
2018-08-30T23:29:28.026Z,99612.09
2018-08-30T23:31:57.078Z,99609.69
2018-08-30T23:34:26.537Z,99603.67
2018-08-30T23:36:59.366Z,99610.19
2018-08-30T23:39:28.513Z,99610.52
2018-08-30T23:41:57.483Z,99608.51
2018-08-30T23:44:26.576Z,99611.70
2018-08-30T23:46:55.544Z,99618.60
2018-08-30T23:49:24.646Z,99610.16
2018-08-30T23:51:53.624Z,99613.36
2018-08-30T23:54:22.597Z,99611.86
2018-08-30T23:56:51.690Z,99609.01
2018-08-30T23:59:31.823Z,99609.33
